createdAt,value
2022-11-27T00:01:11.189Z,66.30
2022-11-27T00:03:39.514Z,66.17
2022-11-27T00:06:09.923Z,66.04
2022-11-27T00:08:37.895Z,66.11
2022-11-27T00:11:08.594Z,65.77
2022-11-27T00:13:36.649Z,65.40
2022-11-27T00:16:05.933Z,65.37
2022-11-27T00:18:34.444Z,65.59
2022-11-27T00:21:04.753Z,65.77
2022-11-27T00:23:35.737Z,65.40
2022-11-27T00:26:04.164Z,65.46
2022-11-27T00:28:32.357Z,65.74
2022-11-27T00:31:01.188Z,65.47
2022-11-27T00:33:29.408Z,65.19
2022-11-27T00:35:57.409Z,65.57
2022-11-27T00:38:25.400Z,65.46
2022-11-27T00:40:54.813Z,65.82
2022-11-27T00:43:22.804Z,65.15
2022-11-27T00:45:50.904Z,65.36
2022-11-27T00:48:18.901Z,65.33
2022-11-27T00:50:46.858Z,65.14
2022-11-27T00:53:14.865Z,65.53
2022-11-27T00:55:42.853Z,65.51
2022-11-27T00:58:12.321Z,65.38
2022-11-27T01:00:40.299Z,64.97
2022-11-27T01:03:08.343Z,65.11
2022-11-27T01:05:37.760Z,65.16
2022-11-27T01:08:06.053Z,64.77
2022-11-27T01:10:34.051Z,65.33
2022-11-27T01:13:02.064Z,64.92
2022-11-27T01:15:31.482Z,64.72
2022-11-27T01:17:59.453Z,65.12
2022-11-27T01:20:27.461Z,65.13
2022-11-27T01:22:55.447Z,64.95
2022-11-27T01:25:26.925Z,64.56
2022-11-27T01:27:55.257Z,65.01
2022-11-27T01:30:23.319Z,65.38
2022-11-27T01:32:52.659Z,64.66
2022-11-27T01:35:20.623Z,64.59
2022-11-27T01:37:48.624Z,64.88
2022-11-27T01:40:17.035Z,64.63
2022-11-27T01:42:45.088Z,64.28
2022-11-27T01:45:16.308Z,64.15
2022-11-27T01:47:48.282Z,64.41
2022-11-27T01:50:22.426Z,63.92
2022-11-27T01:52:54.328Z,64.27
2022-11-27T01:55:26.808Z,64.34
2022-11-27T01:57:59.030Z,64.88
2022-11-27T02:00:27.329Z,64.93
2022-11-27T02:02:55.867Z,64.50
2022-11-27T02:05:28.583Z,64.14
2022-11-27T02:07:58.911Z,65.27
2022-11-27T02:10:37.247Z,65.09
2022-11-27T02:13:11.024Z,65.77
2022-11-27T02:15:45.923Z,65.48
2022-11-27T02:18:19.946Z,65.35
2022-11-27T02:20:55.458Z,65.50
2022-11-27T02:23:57.175Z,65.17
2022-11-27T02:26:54.600Z,66.04
2022-11-27T02:29:24.939Z,66.36
2022-11-27T02:31:58.396Z,65.28
2022-11-27T02:34:32.252Z,65.17
2022-11-27T02:37:05.757Z,65.57
2022-11-27T02:39:39.590Z,65.42
2022-11-27T02:42:12.911Z,65.46
2022-11-27T02:44:47.620Z,65.58
2022-11-27T02:47:16.530Z,65.30
2022-11-27T02:49:46.734Z,65.40
2022-11-27T02:52:18.382Z,65.60
2022-11-27T02:54:48.761Z,65.52
2022-11-27T02:57:18.637Z,65.85
2022-11-27T02:59:49.705Z,65.88
2022-11-27T03:02:24.087Z,65.18
2022-11-27T03:04:56.101Z,64.89
2022-11-27T03:07:29.200Z,65.27
2022-11-27T03:10:02.034Z,65.88
2022-11-27T03:12:30.188Z,66.29
2022-11-27T03:14:59.593Z,65.28
2022-11-27T03:17:37.805Z,65.07
2022-11-27T03:20:12.298Z,64.87
2022-11-27T03:22:40.457Z,65.18
2022-11-27T03:25:09.157Z,65.10
2022-11-27T03:27:41.874Z,64.80
2022-11-27T03:30:12.760Z,64.74
2022-11-27T03:32:40.863Z,64.91
2022-11-27T03:35:12.401Z,64.74
2022-11-27T03:37:40.662Z,65.12
2022-11-27T03:40:10.369Z,65.14
2022-11-27T03:42:50.493Z,64.68
2022-11-27T03:45:29.074Z,65.08
2022-11-27T03:48:10.530Z,64.90
2022-11-27T03:50:49.830Z,65.04
2022-11-27T03:53:24.588Z,64.91
2022-11-27T03:56:04.208Z,64.82
2022-11-27T03:58:38.120Z,65.21
2022-11-27T04:01:11.988Z,64.69
2022-11-27T04:03:40.303Z,65.18
2022-11-27T04:06:08.556Z,65.33
2022-11-27T04:08:36.584Z,65.01
2022-11-27T04:11:04.714Z,65.46
2022-11-27T04:13:33.030Z,65.04
2022-11-27T04:16:02.293Z,65.11
2022-11-27T04:18:32.180Z,65.66
2022-11-27T04:21:00.520Z,65.47
2022-11-27T04:23:28.619Z,65.30
2022-11-27T04:25:56.638Z,65.49
2022-11-27T04:28:24.718Z,65.29
2022-11-27T04:30:53.942Z,65.51
2022-11-27T04:33:22.058Z,65.80
2022-11-27T04:35:51.917Z,65.56
2022-11-27T04:38:20.233Z,65.50
2022-11-27T04:40:48.585Z,65.40
2022-11-27T04:43:16.644Z,65.08
2022-11-27T04:45:44.908Z,65.40
2022-11-27T04:48:12.967Z,65.40
2022-11-27T04:50:41.103Z,65.12
2022-11-27T04:53:10.486Z,65.32
2022-11-27T04:55:38.601Z,65.85
2022-11-27T04:58:06.620Z,65.66
2022-11-27T05:00:34.733Z,65.98
2022-11-27T05:03:02.941Z,65.82
2022-11-27T05:05:30.979Z,65.90
2022-11-27T05:07:59.193Z,66.02
2022-11-27T05:10:28.633Z,65.70
2022-11-27T05:12:56.620Z,65.62
2022-11-27T05:15:24.644Z,65.78
2022-11-27T05:17:52.686Z,65.92
2022-11-27T05:20:20.721Z,65.50
2022-11-27T05:22:49.709Z,65.91
2022-11-27T05:25:17.778Z,65.81
2022-11-27T05:27:47.231Z,65.46
2022-11-27T05:30:15.292Z,65.51
2022-11-27T05:32:43.298Z,65.66
2022-11-27T05:35:11.411Z,65.69
2022-11-27T05:37:39.376Z,65.33
2022-11-27T05:40:08.702Z,65.55
2022-11-27T05:42:36.844Z,65.56
2022-11-27T05:45:07.253Z,65.37
2022-11-27T05:47:35.333Z,64.92
2022-11-27T05:50:03.454Z,65.01
2022-11-27T05:52:31.480Z,65.03
2022-11-27T05:54:59.485Z,65.17
2022-11-27T05:57:28.232Z,64.57
2022-11-27T05:59:56.214Z,64.81
2022-11-27T06:02:29.351Z,65.11
2022-11-27T06:04:57.774Z,64.79
2022-11-27T06:07:25.903Z,64.85
2022-11-27T06:09:54.016Z,64.40
2022-11-27T06:12:22.020Z,64.73
2022-11-27T06:14:50.071Z,64.56
2022-11-27T06:17:18.074Z,64.53
2022-11-27T06:19:47.473Z,64.29
2022-11-27T06:22:15.544Z,63.89
2022-11-27T06:24:43.712Z,63.72
2022-11-27T06:27:11.879Z,63.58
2022-11-27T06:29:39.966Z,63.60
2022-11-27T06:32:08.094Z,63.86
2022-11-27T06:34:36.185Z,63.55
2022-11-27T06:37:10.393Z,63.58
2022-11-27T06:39:41.020Z,63.52
2022-11-27T06:42:09.213Z,63.38
2022-11-27T06:44:37.450Z,63.26
2022-11-27T06:47:05.680Z,63.53
2022-11-27T06:49:33.704Z,63.47
2022-11-27T06:52:02.143Z,63.53
2022-11-27T06:54:31.584Z,63.67
2022-11-27T06:56:59.616Z,63.09
2022-11-27T06:59:27.692Z,63.36
2022-11-27T07:01:55.763Z,63.14
2022-11-27T07:04:24.012Z,63.18
2022-11-27T07:06:52.061Z,63.04
2022-11-27T07:09:20.068Z,63.11
2022-11-27T07:11:49.494Z,62.98
2022-11-27T07:14:17.536Z,62.89
2022-11-27T07:16:45.678Z,62.62
2022-11-27T07:19:14.652Z,62.89
2022-11-27T07:21:42.636Z,63.14
2022-11-27T07:24:10.790Z,63.01
2022-11-27T07:26:38.755Z,62.43
2022-11-27T07:29:08.166Z,62.61
2022-11-27T07:31:36.226Z,62.55
2022-11-27T07:34:08.289Z,62.55
2022-11-27T07:36:39.812Z,63.10
2022-11-27T07:39:07.885Z,62.63
2022-11-27T07:41:35.894Z,62.70
2022-11-27T07:44:04.446Z,62.62
2022-11-27T07:46:33.941Z,62.31
2022-11-27T07:49:02.205Z,62.25
2022-11-27T07:51:30.645Z,62.44
2022-11-27T07:53:58.812Z,62.10
2022-11-27T07:56:27.452Z,62.02
2022-11-27T07:58:55.424Z,62.02
2022-11-27T08:01:23.626Z,61.86
2022-11-27T08:03:53.115Z,61.58
2022-11-27T08:06:24.035Z,61.53
2022-11-27T08:08:52.748Z,61.61
2022-11-27T08:11:23.965Z,61.49
2022-11-27T08:13:56.692Z,61.60
2022-11-27T08:16:25.276Z,61.57
2022-11-27T08:18:55.250Z,61.44
2022-11-27T08:21:23.836Z,61.17
2022-11-27T08:23:52.110Z,61.14
2022-11-27T08:26:20.944Z,61.28
2022-11-27T08:28:48.977Z,61.35
2022-11-27T08:31:17.184Z,61.20
2022-11-27T08:33:45.265Z,60.89
2022-11-27T08:36:18.151Z,60.80
2022-11-27T08:38:46.852Z,60.97
2022-11-27T08:41:14.913Z,61.14
2022-11-27T08:43:43.004Z,61.10
2022-11-27T08:46:11.588Z,60.59
2022-11-27T08:48:39.953Z,61.03
2022-11-27T08:51:09.532Z,60.70
2022-11-27T08:53:39.243Z,60.51
2022-11-27T08:56:09.024Z,60.40
2022-11-27T08:58:37.493Z,60.42
2022-11-27T09:01:10.500Z,59.77
2022-11-27T09:03:38.828Z,60.09
2022-11-27T09:06:11.835Z,59.58
2022-11-27T09:08:42.938Z,59.81
2022-11-27T09:11:12.336Z,59.90
2022-11-27T09:13:40.941Z,59.66
2022-11-27T09:16:11.913Z,59.61
2022-11-27T09:18:40.380Z,59.34
2022-11-27T09:21:10.741Z,59.22
2022-11-27T09:23:39.106Z,59.29
2022-11-27T09:26:11.169Z,59.18
2022-11-27T09:28:39.741Z,59.12
2022-11-27T09:31:09.349Z,59.11
2022-11-27T09:33:39.316Z,59.19
2022-11-27T09:36:08.477Z,58.95
2022-11-27T09:38:36.953Z,58.78
2022-11-27T09:41:19.600Z,58.43
2022-11-27T09:43:54.363Z,58.29
2022-11-27T09:46:27.701Z,58.63
2022-11-27T09:48:57.922Z,58.43
2022-11-27T09:51:34.069Z,58.32
2022-11-27T09:54:07.768Z,58.63
2022-11-27T09:56:37.764Z,58.51
2022-11-27T09:59:15.961Z,58.20
2022-11-27T10:01:49.382Z,58.40
2022-11-27T10:04:21.038Z,58.21
2022-11-27T10:07:09.573Z,58.25
2022-11-27T10:09:51.735Z,58.25
2022-11-27T10:12:31.434Z,57.70
2022-11-27T10:15:08.193Z,57.97
2022-11-27T10:17:42.001Z,57.80
2022-11-27T10:20:19.368Z,57.93
2022-11-27T10:22:54.983Z,57.63
2022-11-27T10:25:28.838Z,57.76
2022-11-27T10:28:11.752Z,57.50
2022-11-27T10:30:44.921Z,57.85
2022-11-27T10:33:18.511Z,57.73
2022-11-27T10:35:48.990Z,58.02
2022-11-27T10:38:21.563Z,58.16
2022-11-27T10:40:56.521Z,57.83
2022-11-27T10:43:27.071Z,58.27
2022-11-27T10:45:58.114Z,58.65
2022-11-27T10:48:27.830Z,59.00
2022-11-27T10:50:56.278Z,59.28
2022-11-27T10:53:28.316Z,59.13
2022-11-27T10:56:15.055Z,59.16
2022-11-27T10:58:48.290Z,59.96
2022-11-27T11:01:18.303Z,59.84
2022-11-27T11:03:47.264Z,59.92
2022-11-27T11:06:21.387Z,59.74
2022-11-27T11:08:50.780Z,60.20
2022-11-27T11:11:27.477Z,59.86
2022-11-27T11:13:57.014Z,60.25
2022-11-27T11:16:33.333Z,60.60
2022-11-27T11:19:03.176Z,60.60
2022-11-27T11:21:34.163Z,60.62
2022-11-27T11:24:04.382Z,60.85
2022-11-27T11:26:35.274Z,60.91
2022-11-27T11:29:08.202Z,60.96
2022-11-27T11:31:39.577Z,60.89
2022-11-27T11:34:20.474Z,61.13
2022-11-27T11:36:57.449Z,61.16
2022-11-27T11:39:28.543Z,61.57
2022-11-27T11:41:57.034Z,61.57
2022-11-27T11:44:34.290Z,61.31
2022-11-27T11:47:02.557Z,61.70
2022-11-27T11:49:32.920Z,61.68
2022-11-27T11:52:23.841Z,61.48
2022-11-27T11:55:08.873Z,61.91
2022-11-27T11:57:56.447Z,62.02
2022-11-27T12:00:38.711Z,62.31
2022-11-27T12:03:26.330Z,61.89
2022-11-27T12:06:18.919Z,61.92
2022-11-27T12:09:01.546Z,61.79
2022-11-27T12:11:38.465Z,61.68
2022-11-27T12:14:18.163Z,62.34
2022-11-27T12:17:03.570Z,62.26
2022-11-27T12:19:47.248Z,62.42
2022-11-27T12:22:26.736Z,62.22
2022-11-27T12:25:03.793Z,62.70
2022-11-27T12:27:40.907Z,62.63
2022-11-27T12:30:17.690Z,62.41
2022-11-27T12:33:15.380Z,62.29
2022-11-27T12:35:50.531Z,62.48
2022-11-27T12:38:37.967Z,62.11
2022-11-27T12:41:39.809Z,62.82
2022-11-27T12:44:19.132Z,62.50
2022-11-27T12:46:54.733Z,62.68
2022-11-27T12:49:27.099Z,62.98
2022-11-27T12:52:02.465Z,62.83
2022-11-27T12:54:33.955Z,62.88
2022-11-27T12:57:07.416Z,62.88
2022-11-27T12:59:42.537Z,62.89
2022-11-27T13:02:25.670Z,62.48
2022-11-27T13:04:58.701Z,62.73
2022-11-27T13:07:38.525Z,62.85
2022-11-27T13:10:13.785Z,62.74
2022-11-27T13:12:47.580Z,62.72
2022-11-27T13:15:24.445Z,62.82
2022-11-27T13:17:58.937Z,62.68
2022-11-27T13:20:34.788Z,62.73
2022-11-27T13:23:04.229Z,62.75
2022-11-27T13:25:35.965Z,62.89
2022-11-27T13:28:05.819Z,62.95
2022-11-27T13:30:37.813Z,63.16
2022-11-27T13:33:07.906Z,63.18
2022-11-27T13:35:40.034Z,63.11
2022-11-27T13:38:12.856Z,63.21
2022-11-27T13:40:44.412Z,63.69
2022-11-27T13:43:28.858Z,63.05
2022-11-27T13:46:04.405Z,63.08
2022-11-27T13:48:36.267Z,63.08
2022-11-27T13:51:06.957Z,63.66
2022-11-27T13:53:38.492Z,63.22
2022-11-27T13:56:07.593Z,63.21
2022-11-27T13:58:37.608Z,63.40
2022-11-27T14:01:18.276Z,62.71
2022-11-27T14:03:47.061Z,63.18
2022-11-27T14:06:27.238Z,62.76
2022-11-27T14:08:59.590Z,63.34
2022-11-27T14:11:35.210Z,63.15
2022-11-27T14:14:12.889Z,63.68
2022-11-27T14:16:42.569Z,63.27
2022-11-27T14:19:30.668Z,63.05
2022-11-27T14:22:01.744Z,63.56
2022-11-27T14:24:41.296Z,63.34
2022-11-27T14:27:18.469Z,63.14
2022-11-27T14:29:46.805Z,63.40
2022-11-27T14:32:16.775Z,63.25
2022-11-27T14:34:45.668Z,63.25
2022-11-27T14:37:24.992Z,63.38
2022-11-27T14:39:54.985Z,63.20
2022-11-27T14:42:28.451Z,62.93
2022-11-27T14:45:06.576Z,62.86
2022-11-27T14:47:35.079Z,63.06
2022-11-27T14:50:04.749Z,62.89
2022-11-27T14:52:32.977Z,63.17
2022-11-27T14:55:03.489Z,62.96
2022-11-27T14:57:32.411Z,63.41
2022-11-27T15:03:09.935Z,63.11
2022-11-27T15:05:39.647Z,63.37
2022-11-27T15:08:10.770Z,63.44
2022-11-27T15:10:42.622Z,63.58
2022-11-27T15:13:27.986Z,63.18
2022-11-27T15:16:01.080Z,63.24
2022-11-27T15:18:31.420Z,63.24
2022-11-27T15:21:00.988Z,63.31
2022-11-27T15:23:30.729Z,63.27
2022-11-27T15:26:15.193Z,62.88
2022-11-27T15:28:51.286Z,63.06
2022-11-27T15:31:27.423Z,63.15
2022-11-27T15:34:04.477Z,62.98
2022-11-27T15:36:39.516Z,63.02
2022-11-27T15:39:23.021Z,63.07
2022-11-27T15:41:55.038Z,63.25
2022-11-27T15:44:24.082Z,63.37
2022-11-27T15:46:52.957Z,63.50
2022-11-27T15:49:22.042Z,63.53
2022-11-27T15:51:50.824Z,63.47
2022-11-27T15:54:19.848Z,63.36
2022-11-27T15:56:48.230Z,63.32
2022-11-27T15:59:20.619Z,63.21
2022-11-27T16:01:49.926Z,64.22
2022-11-27T16:04:18.311Z,63.75
2022-11-27T16:06:46.639Z,63.67
2022-11-27T16:09:14.951Z,63.46
2022-11-27T16:11:43.714Z,63.65
2022-11-27T16:14:12.747Z,63.85
2022-11-27T16:16:42.555Z,63.57
2022-11-27T16:19:12.359Z,63.51
2022-11-27T16:21:40.677Z,63.79
2022-11-27T16:24:12.555Z,63.60
2022-11-27T16:26:41.132Z,64.12
2022-11-27T16:29:11.154Z,64.11
2022-11-27T16:31:39.596Z,63.99
2022-11-27T16:34:10.353Z,63.92
2022-11-27T16:36:43.782Z,63.83
2022-11-27T16:39:13.923Z,63.97
2022-11-27T16:41:42.189Z,63.73
2022-11-27T16:44:12.232Z,63.67
2022-11-27T16:46:43.796Z,63.82
2022-11-27T16:49:14.256Z,63.71
2022-11-27T16:51:43.217Z,64.24
2022-11-27T16:54:14.983Z,64.16
2022-11-27T16:56:44.486Z,64.37
2022-11-27T16:59:15.637Z,64.49
2022-11-27T17:01:45.273Z,65.41
2022-11-27T17:04:19.674Z,65.15
2022-11-27T17:06:49.131Z,65.17
2022-11-27T17:09:17.902Z,65.31
2022-11-27T17:11:49.380Z,65.16
2022-11-27T17:14:20.450Z,65.23
2022-11-27T17:16:50.216Z,65.01
2022-11-27T17:19:23.392Z,64.70
2022-11-27T17:21:51.758Z,64.05
2022-11-27T17:24:21.219Z,64.08
2022-11-27T17:26:53.416Z,63.86
2022-11-27T17:29:24.570Z,63.69
2022-11-27T17:31:52.964Z,64.13
2022-11-27T17:34:22.658Z,63.98
2022-11-27T17:36:53.855Z,64.28
2022-11-27T17:39:22.557Z,63.76
2022-11-27T17:41:50.933Z,63.66
2022-11-27T17:44:19.261Z,64.05
2022-11-27T17:46:50.134Z,63.63
2022-11-27T17:49:22.060Z,63.74
2022-11-27T17:51:52.802Z,63.74
2022-11-27T17:54:21.897Z,63.93
2022-11-27T17:56:51.654Z,63.84
2022-11-27T17:59:20.744Z,64.02
2022-11-27T18:01:51.522Z,64.08
2022-11-27T18:04:20.053Z,64.31
2022-11-27T18:06:48.697Z,64.70
2022-11-27T18:09:18.791Z,65.11
2022-11-27T18:11:47.266Z,64.82
2022-11-27T18:14:16.797Z,64.60
2022-11-27T18:16:45.226Z,64.60
2022-11-27T18:19:13.500Z,64.56
2022-11-27T18:21:41.895Z,64.43
2022-11-27T18:24:25.833Z,64.58
2022-11-27T18:27:11.789Z,64.32
2022-11-27T18:29:42.656Z,64.84
2022-11-27T18:32:12.553Z,64.27
2022-11-27T18:34:41.759Z,64.76
2022-11-27T18:37:10.812Z,64.70
2022-11-27T18:39:40.211Z,64.72
2022-11-27T18:42:10.319Z,65.18
2022-11-27T18:44:44.332Z,64.43
2022-11-27T18:47:14.696Z,64.35
2022-11-27T18:49:45.383Z,64.15
2022-11-27T18:52:14.171Z,64.99
2022-11-27T18:54:44.256Z,64.79
2022-11-27T18:57:14.442Z,64.59
2022-11-27T18:59:44.861Z,64.44
2022-11-27T19:02:14.216Z,64.75
2022-11-27T19:04:44.349Z,64.72
2022-11-27T19:07:12.932Z,64.56
2022-11-27T19:09:41.700Z,64.50
2022-11-27T19:12:10.230Z,64.40
2022-11-27T19:14:40.572Z,64.36
2022-11-27T19:17:09.430Z,64.61
2022-11-27T19:19:54.582Z,64.22
2022-11-27T19:22:23.351Z,64.32
2022-11-27T19:24:51.805Z,64.68
2022-11-27T19:27:20.368Z,64.37
2022-11-27T19:29:50.902Z,64.62
2022-11-27T19:32:19.346Z,64.22
2022-11-27T19:34:47.739Z,64.90
2022-11-27T19:37:43.865Z,64.30
2022-11-27T19:40:13.442Z,64.47
2022-11-27T19:42:41.866Z,64.72
2022-11-27T19:45:11.780Z,64.37
2022-11-27T19:47:40.071Z,64.07
2022-11-27T19:50:09.363Z,63.82
2022-11-27T19:52:38.033Z,64.25
2022-11-27T19:55:07.059Z,64.17
2022-11-27T19:57:35.412Z,63.82
2022-11-27T20:00:04.892Z,63.92
2022-11-27T20:02:45.071Z,64.43
2022-11-27T20:05:13.797Z,64.63
2022-11-27T20:07:42.224Z,65.15
2022-11-27T20:10:11.938Z,64.56
2022-11-27T20:12:40.276Z,64.56
2022-11-27T20:15:14.336Z,64.94
2022-11-27T20:17:44.901Z,64.57
2022-11-27T20:20:13.856Z,64.31
2022-11-27T20:22:42.124Z,64.10
2022-11-27T20:25:25.767Z,64.12
2022-11-27T20:27:54.331Z,64.32
2022-11-27T20:30:22.643Z,64.26
2022-11-27T20:32:54.710Z,64.10
2022-11-27T20:35:23.463Z,64.16
2022-11-27T20:37:51.756Z,64.01
2022-11-27T20:40:22.468Z,64.69
2022-11-27T20:42:51.832Z,64.20
2022-11-27T20:45:20.620Z,64.37
2022-11-27T20:47:50.621Z,64.17
2022-11-27T20:50:21.915Z,64.29
2022-11-27T20:52:50.188Z,64.40
2022-11-27T20:55:19.637Z,64.54
2022-11-27T20:57:52.024Z,64.38
2022-11-27T21:00:24.165Z,64.17
2022-11-27T21:02:52.462Z,64.41
2022-11-27T21:05:22.199Z,64.24
2022-11-27T21:07:50.575Z,64.76
2022-11-27T21:10:20.134Z,64.43
2022-11-27T21:12:48.440Z,65.60
2022-11-27T21:15:17.441Z,65.20
2022-11-27T21:17:46.061Z,65.18
2022-11-27T21:20:14.847Z,65.20
2022-11-27T21:22:44.240Z,64.66
2022-11-27T21:25:12.312Z,64.79
2022-11-27T21:27:40.345Z,64.50
2022-11-27T21:30:09.555Z,64.72
2022-11-27T21:32:37.592Z,64.83
2022-11-27T21:35:06.317Z,64.88
2022-11-27T21:37:34.469Z,64.67
2022-11-27T21:40:04.489Z,64.62
2022-11-27T21:42:32.980Z,64.50
2022-11-27T21:45:01.179Z,64.63
2022-11-27T21:47:29.473Z,64.56
2022-11-27T21:49:57.668Z,64.36
2022-11-27T21:52:25.686Z,64.85
2022-11-27T21:54:53.735Z,65.20
2022-11-27T21:57:23.399Z,64.75
2022-11-27T21:59:51.427Z,64.69
2022-11-27T22:02:19.471Z,64.45
2022-11-27T22:04:48.064Z,64.67
2022-11-27T22:07:16.152Z,64.81
2022-11-27T22:09:44.216Z,65.12
2022-11-27T22:12:12.221Z,65.07
2022-11-27T22:14:43.360Z,64.94
2022-11-27T22:17:11.751Z,65.56
2022-11-27T22:19:42.385Z,65.03
2022-11-27T22:22:10.540Z,64.95
2022-11-27T22:24:39.542Z,64.87
2022-11-27T22:27:08.131Z,65.04
2022-11-27T22:29:36.505Z,65.11
2022-11-27T22:32:08.060Z,65.39
2022-11-27T22:34:36.573Z,65.50
2022-11-27T22:37:05.964Z,65.40
2022-11-27T22:39:34.607Z,65.86
2022-11-27T22:42:03.528Z,65.47
2022-11-27T22:44:31.583Z,65.40
2022-11-27T22:46:59.562Z,65.36
2022-11-27T22:49:29.216Z,65.35
2022-11-27T22:51:57.661Z,65.91
2022-11-27T22:54:25.739Z,65.36
2022-11-27T22:56:55.753Z,66.24
2022-11-27T22:59:32.194Z,65.81
2022-11-27T23:02:01.233Z,65.72
2022-11-27T23:04:30.715Z,65.91
2022-11-27T23:06:59.088Z,65.85
2022-11-27T23:09:27.361Z,65.77
2022-11-27T23:11:58.079Z,66.11
2022-11-27T23:14:26.581Z,65.90
2022-11-27T23:16:54.708Z,66.25
2022-11-27T23:19:23.019Z,65.95
2022-11-27T23:21:52.553Z,65.56
2022-11-27T23:24:20.958Z,65.53
2022-11-27T23:26:49.310Z,65.98
2022-11-27T23:29:17.349Z,66.42
2022-11-27T23:31:45.434Z,66.20
2022-11-27T23:34:15.924Z,66.08
2022-11-27T23:36:44.205Z,65.85
2022-11-27T23:39:14.888Z,66.30
2022-11-27T23:41:44.023Z,66.40
2022-11-27T23:44:12.233Z,66.03
2022-11-27T23:46:40.604Z,65.89
2022-11-27T23:49:08.953Z,65.61
2022-11-27T23:51:37.465Z,65.52
2022-11-27T23:54:09.008Z,65.29
2022-11-27T23:56:40.822Z,65.12
2022-11-27T23:59:08.921Z,65.22
